Rogers Park, Illinois
Current Conditions -  °F | °C
As of 7:51 PM on Monday 20 Oct 2014 (Local Time) from KORD Reporting Station
Broken Clouds Broken Clouds  
Wind Chill: 12°   Ceiling: 6500
Heat Index: 12°   Visibility: 10mi
Dew Point:   Wind: 9mph
Humidity: 74%   Direction: 350°N
Pressure: 29.97"   Gusts: NA
Location:  41.991°N, 87.6654°W
Report Text: KORD 210051Z 35008KT 10SM BKN065 12/07 A2997 RMK AO2 SLP150 T01170072 $
Loading
Personal Weather Stations






























Interactive Weather Map
Tropical Storm Tracking
New forecast layout! Learn more

10-Day Weather Forecast

Advertisements
Track Severe Weather on mobile